Time;durP1;ratioP1;P1;durP2;ratioP2;P2;SDS_P1;SDS_P2;PMS_P1;PMS_P2;Temp;Humidity;BMP_temperature;BMP_pressure;BME280_temperature;BME280_humidity;BME280_pressure;Samples;Min_cycle;Max_cycle;Signal;HPM_P1;HPM_P2
2023/06/16 00:00:19;;;;;;;0.40;0.40;;;;;;;17.24;48.16;96868.37;29395;203;63009;-50
2023/06/16 00:00:50;;;;;;;0.40;0.40;;;;;;;17.22;47.92;96857.72;29395;311;63005;-56
2023/06/16 00:01:23;;;;;;;0.40;0.40;;;;;;;17.22;48.11;96860.47;29395;212;63009;-51
2023/06/16 00:01:55;;;;;;;0.50;0.50;;;;;;;17.21;48.10;96863.56;29395;285;63005;-58
2023/06/16 00:02:27;;;;;;;0.40;0.40;;;;;;;17.20;48.40;96870.97;29394;204;64013;-57
2023/06/16 00:02:58;;;;;;;0.40;0.40;;;;;;;17.19;48.32;96866.63;29395;237;63004;-57
2023/06/16 00:03:34;;;;;;;0.40;0.40;;;;;;;17.19;48.36;96863.88;29395;216;63009;-50
2023/06/16 00:04:06;;;;;;;0.50;0.50;;;;;;;17.20;48.37;96862.75;29395;212;63004;-51
2023/06/16 00:04:37;;;;;;;0.40;0.40;;;;;;;17.19;48.32;96860.34;29394;227;64013;-51
2023/06/16 00:05:12;;;;;;;0.40;0.40;;;;;;;17.19;48.27;96865.84;29394;201;64004;-57
2023/06/16 00:05:45;;;;;;;0.40;0.40;;;;;;;17.18;48.28;96865.03;29395;293;63009;-50
2023/06/16 00:06:19;;;;;;;0.40;0.40;;;;;;;17.18;48.05;96859.53;29395;220;63005;-50
2023/06/16 00:06:52;;;;;;;0.50;0.50;;;;;;;17.18;48.18;96859.53;29395;222;63009;-50
2023/06/16 00:07:24;;;;;;;0.40;0.40;;;;;;;17.18;48.05;96865.03;29395;208;63005;-58
2023/06/16 00:08:03;;;;;;;0.40;0.40;;;;;;;17.19;47.98;96857.59;29395;279;63009;-58
2023/06/16 00:08:35;;;;;;;0.40;0.40;;;;;;;17.19;47.82;96860.34;29395;269;63005;-50
2023/06/16 00:09:06;;;;;;;0.40;0.40;;;;;;;17.20;47.94;96857.28;29395;202;63009;-56
2023/06/16 00:09:38;;;;;;;0.40;0.40;;;;;;;17.19;48.01;96858.41;29394;202;64009;-56
2023/06/16 00:10:10;;;;;;;0.40;0.40;;;;;;;17.20;48.05;96860.00;29395;222;63024;-56
2023/06/16 00:10:41;;;;;;;0.40;0.40;;;;;;;17.21;47.65;96864.34;29395;245;63004;-56
2023/06/16 00:11:15;;;;;;;0.40;0.40;;;;;;;17.21;47.86;96858.88;29395;335;63009;-57
2023/06/16 00:11:46;;;;;;;0.40;0.40;;;;;;;17.22;47.71;96860.47;29395;225;63004;-50
2023/06/16 00:12:17;;;;;;;0.40;0.40;;;;;;;17.22;48.06;96860.47;29395;203;63008;-57
2023/06/16 00:12:49;;;;;;;0.40;0.40;;;;;;;17.22;47.82;96860.47;29395;287;63015;-57
2023/06/16 00:13:20;;;;;;;0.40;0.40;;;;;;;17.23;48.06;96848.38;29394;208;64014;-50
2023/06/16 00:13:52;;;;;;;0.40;0.40;;;;;;;17.24;47.62;96862.88;29395;245;63005;-51
2023/06/16 00:14:23;;;;;;;0.40;0.40;;;;;;;17.24;47.78;96863.69;29395;224;63009;-50
2023/06/16 00:14:54;;;;;;;0.40;0.40;;;;;;;17.26;47.68;96857.88;29395;203;63005;-56
2023/06/16 00:15:26;;;;;;;0.40;0.40;;;;;;;17.25;47.70;96865.28;29395;196;63009;-56
2023/06/16 00:15:57;;;;;;;0.40;0.40;;;;;;;17.26;47.75;96860.59;29395;258;63005;-57
2023/06/16 00:16:28;;;;;;;0.40;0.40;;;;;;;17.25;47.78;96862.56;29395;203;63019;-52
2023/06/16 00:17:03;;;;;;;0.40;0.40;;;;;;;17.26;47.76;96855.94;29395;203;63004;-56
2023/06/16 00:17:44;;;;;;;0.40;0.40;;;;;;;17.26;47.67;96866.91;29395;258;63009;-57
2023/06/16 00:18:16;;;;;;;0.40;0.40;;;;;;;17.26;47.59;96853.19;29416;202;64009;-50
2023/06/16 00:18:52;;;;;;;0.40;0.40;;;;;;;17.26;47.81;96855.94;29395;200;63009;-58
2023/06/16 00:19:27;;;;;;;0.40;0.40;;;;;;;17.26;47.72;96858.66;29395;249;63004;-56
2023/06/16 00:19:58;;;;;;;0.40;0.40;;;;;;;17.26;47.93;96855.94;29395;220;63008;-50
2023/06/16 00:20:32;;;;;;;0.40;0.40;;;;;;;17.26;47.57;96861.41;29394;339;64004;-57
2023/06/16 00:21:03;;;;;;;0.40;0.40;;;;;;;17.27;47.88;96857.53;29395;289;63009;-56
2023/06/16 00:21:38;;;;;;;0.40;0.40;;;;;;;17.26;47.64;96864.16;29395;197;63005;-51
2023/06/16 00:22:10;;;;;;;0.40;0.40;;;;;;;17.27;47.73;96857.53;29395;250;63009;-57
2023/06/16 00:22:47;;;;;;;0.40;0.40;;;;;;;17.26;47.74;96855.94;29394;214;64009;-51
2023/06/16 00:23:24;;;;;;;0.40;0.40;;;;;;;17.26;47.81;96855.94;29395;274;63025;-57
2023/06/16 00:23:56;;;;;;;0.40;0.40;;;;;;;17.26;47.79;96864.16;29395;211;63004;-50
2023/06/16 00:24:27;;;;;;;0.40;0.40;;;;;;;17.25;47.95;96859.00;29395;203;63021;-58
2023/06/16 00:24:59;;;;;;;0.40;0.40;;;;;;;17.24;48.07;96863.69;29395;221;63004;-58
2023/06/16 00:25:34;;;;;;;0.40;0.40;;;;;;;17.24;48.15;96863.69;29394;230;64013;-51
2023/06/16 00:26:05;;;;;;;0.40;0.40;;;;;;;17.22;48.22;96865.97;29395;232;63010;-59
2023/06/16 00:26:37;;;;;;;0.40;0.40;;;;;;;17.21;48.41;96864.34;29395;219;63008;-50
2023/06/16 00:27:08;;;;;;;0.40;0.40;;;;;;;17.20;48.42;96865.50;29395;209;63004;-51
2023/06/16 00:27:43;;;;;;;0.40;0.40;;;;;;;17.18;48.66;96862.28;29395;255;63018;-51
2023/06/16 00:28:14;;;;;;;0.40;0.40;;;;;;;17.16;48.81;96867.31;29394;236;64009;-59
2023/06/16 00:28:46;;;;;;;0.40;0.40;;;;;;;17.16;48.72;96861.00;29395;243;63009;-58
2023/06/16 00:29:17;;;;;;;0.40;0.40;;;;;;;17.15;48.67;96862.16;29395;288;63008;-59
2023/06/16 00:29:49;;;;;;;0.40;0.40;;;;;;;17.13;48.62;96859.75;29395;196;63009;-59
2023/06/16 00:30:21;;;;;;;0.40;0.40;;;;;;;17.13;48.69;96861.69;29395;228;63005;-58
2023/06/16 00:30:55;;;;;;;0.40;0.40;;;;;;;17.10;48.84;96868.63;29395;225;63017;-58
2023/06/16 00:31:26;;;;;;;0.40;0.40;;;;;;;17.08;48.56;96865.44;29395;230;63005;-51
2023/06/16 00:31:57;;;;;;;0.40;0.40;;;;;;;17.07;48.63;96861.09;29395;214;63009;-52
2023/06/16 00:32:29;;;;;;;0.40;0.40;;;;;;;17.06;48.63;96862.22;29394;225;64009;-58
2023/06/16 00:33:00;;;;;;;0.40;0.40;;;;;;;17.05;48.80;96868.84;29395;210;63016;-58
2023/06/16 00:33:31;;;;;;;0.40;0.40;;;;;;;17.04;48.63;96865.28;29395;245;63006;-58
2023/06/16 00:34:03;;;;;;;0.40;0.40;;;;;;;17.03;48.65;96858.19;29395;205;63016;-59
2023/06/16 00:34:34;;;;;;;0.40;0.40;;;;;;;17.04;48.52;96864.50;29395;202;63004;-52
2023/06/16 00:35:08;;;;;;;0.40;0.40;;;;;;;17.04;48.56;96862.56;29394;199;64014;-51
2023/06/16 00:35:40;;;;;;;0.40;0.40;;;;;;;17.05;48.34;96860.63;29395;225;63005;-51
2023/06/16 00:36:11;;;;;;;0.40;0.40;;;;;;;17.05;48.30;96866.91;29395;263;63009;-57
2023/06/16 00:36:42;;;;;;;0.40;0.40;;;;;;;17.04;48.39;96859.81;29394;238;64009;-58
2023/06/16 00:37:13;;;;;;;0.40;0.40;;;;;;;17.04;48.41;96865.28;29394;362;64013;-59
2023/06/16 00:37:44;;;;;;;0.40;0.40;;;;;;;17.06;48.66;96862.22;29395;242;63016;-57
2023/06/16 00:38:17;;;;;;;0.40;0.40;;;;;;;17.05;48.81;96860.63;29395;229;63009;-51
2023/06/16 00:38:49;;;;;;;0.40;0.40;;;;;;;17.05;48.45;96860.63;29395;209;63005;-58
2023/06/16 00:39:21;;;;;;;0.50;0.50;;;;;;;17.04;48.86;96868.03;29395;254;63009;-51
2023/06/16 00:39:54;;;;;;;0.40;0.40;;;;;;;17.04;48.63;96859.00;29394;222;64009;-50
2023/06/16 00:40:25;;;;;;;0.40;0.40;;;;;;;17.02;48.76;96864.81;29395;211;63009;-51
2023/06/16 00:40:59;;;;;;;0.40;0.40;;;;;;;17.01;48.60;96854.19;29395;204;63008;-58
2023/06/16 00:41:31;;;;;;;0.40;0.40;;;;;;;17.01;48.66;96862.41;29395;279;63026;-51
2023/06/16 00:42:03;;;;;;;0.40;0.40;;;;;;;17.02;48.39;96872.25;29395;213;63016;-51
2023/06/16 00:42:37;;;;;;;0.40;0.40;;;;;;;17.00;48.64;96864.34;29396;270;63009;-51
2023/06/16 00:43:10;;;;;;;0.43;0.43;;;;;;;16.99;48.63;96862.75;29395;225;63005;-58
2023/06/16 00:43:42;;;;;;;0.40;0.40;;;;;;;16.99;48.57;96865.50;29394;260;64014;-59
2023/06/16 00:44:16;;;;;;;0.40;0.40;;;;;;;16.98;48.79;96866.63;29395;260;63005;-51
2023/06/16 00:44:50;;;;;;;0.40;0.40;;;;;;;16.97;48.83;96859.56;29395;199;63009;-58
2023/06/16 00:45:22;;;;;;;0.40;0.40;;;;;;;16.96;48.86;96866.19;29395;286;63005;-58
2023/06/16 00:45:54;;;;;;;0.40;0.40;;;;;;;16.95;49.08;96863.78;29395;331;63009;-51
2023/06/16 00:46:32;;;;;;;0.40;0.40;;;;;;;16.93;48.94;96857.81;29395;248;63005;-51
2023/06/16 00:47:04;;;;;;;0.50;0.50;;;;;;;16.92;49.00;96868.00;29395;255;63018;-51
2023/06/16 00:47:36;;;;;;;0.40;0.40;;;;;;;16.91;48.97;96860.09;29395;202;63004;-58
2023/06/16 00:48:07;;;;;;;0.40;0.40;;;;;;;16.89;49.19;96867.84;29395;238;63009;-54
2023/06/16 00:48:39;;;;;;;0.40;0.40;;;;;;;16.86;49.37;96861.09;29395;210;63004;-51
2023/06/16 00:49:11;;;;;;;0.40;0.40;;;;;;;16.86;49.54;96868.50;29394;207;64013;-51
2023/06/16 00:49:42;;;;;;;0.40;0.40;;;;;;;16.85;49.76;96866.91;29395;214;63009;-59
2023/06/16 00:50:18;;;;;;;0.40;0.40;;;;;;;16.82;49.83;96864.84;29395;202;63009;-58
2023/06/16 00:50:51;;;;;;;0.40;0.40;;;;;;;16.79;49.89;96863.56;29395;251;63005;-57
2023/06/16 00:51:27;;;;;;;0.40;0.40;;;;;;;16.78;49.87;96861.97;29394;234;64014;-60
2023/06/16 00:51:59;;;;;;;0.40;0.40;;;;;;;16.76;49.50;96864.22;29395;310;63000;-52
2023/06/16 00:52:34;;;;;;;0.40;0.40;;;;;;;16.73;49.75;96862.94;29394;356;64013;-59
2023/06/16 00:53:06;;;;;;;0.40;0.40;;;;;;;16.71;49.95;96865.22;29395;239;63005;-58
2023/06/16 00:53:40;;;;;;;0.40;0.40;;;;;;;16.69;50.01;96867.50;29395;199;63009;-60
2023/06/16 00:54:12;;;;;;;0.40;0.40;;;;;;;16.66;50.19;96865.41;29395;241;63012;-57
2023/06/16 00:54:44;;;;;;;0.40;0.40;;;;;;;16.64;50.39;96864.94;29395;223;63009;-51
2023/06/16 00:55:19;;;;;;;0.40;0.40;;;;;;;16.63;50.75;96866.03;29395;225;63004;-52
2023/06/16 00:55:50;;;;;;;0.40;0.40;;;;;;;16.61;50.68;96868.34;29395;226;63009;-59
2023/06/16 00:56:23;;;;;;;0.50;0.50;;;;;;;16.60;50.79;96868.66;29395;252;63004;-52
2023/06/16 00:56:55;;;;;;;0.40;0.40;;;;;;;16.57;50.59;96867.41;29395;196;63008;-52
2023/06/16 00:57:26;;;;;;;0.40;0.40;;;;;;;16.56;50.92;96871.28;29395;216;63004;-58
2023/06/16 00:57:58;;;;;;;0.40;0.40;;;;;;;16.55;50.81;96871.59;29394;332;64014;-59
2023/06/16 00:58:30;;;;;;;0.40;0.40;;;;;;;16.51;51.13;96868.72;29395;197;63005;-52
2023/06/16 00:59:01;;;;;;;0.40;0.40;;;;;;;16.49;51.10;96870.19;29395;238;63009;-59
2023/06/16 00:59:33;;;;;;;0.40;0.40;;;;;;;16.46;50.91;96866.16;29394;208;64009;-58
2023/06/16 01:00:07;;;;;;;0.40;0.40;;;;;;;16.46;51.68;96873.56;29395;246;63009;-59
2023/06/16 01:00:38;;;;;;;0.40;0.40;;;;;;;16.43;51.46;96866.81;29395;216;63005;-52
2023/06/16 01:01:12;;;;;;;0.40;0.40;;;;;;;16.41;52.08;96874.56;29395;207;63009;-58
2023/06/16 01:01:44;;;;;;;0.40;0.40;;;;;;;16.38;51.48;96875.22;29394;204;64009;-53
2023/06/16 01:02:16;;;;;;;0.40;0.40;;;;;;;16.36;51.91;96869.28;29395;224;63009;-51
2023/06/16 01:02:48;;;;;;;0.40;0.40;;;;;;;16.35;51.88;96875.87;29395;254;63004;-51
2023/06/16 01:03:21;;;;;;;0.50;0.50;;;;;;;16.34;51.90;96874.28;29395;250;63009;-59
2023/06/16 01:03:53;;;;;;;0.40;0.40;;;;;;;16.32;51.74;96871.06;29395;231;63004;-58
2023/06/16 01:04:26;;;;;;;0.40;0.40;;;;;;;16.31;51.99;96863.97;29395;217;63008;-60
2023/06/16 01:04:58;;;;;;;0.40;0.40;;;;;;;16.29;52.29;96867.03;29395;218;63001;-52
2023/06/16 01:05:29;;;;;;;0.40;0.40;;;;;;;16.29;52.04;96871.72;29395;229;63005;-59
2023/06/16 01:06:18;;;;;;;0.40;0.40;;;;;;;16.28;52.10;96870.16;29395;202;63011;-52
2023/06/16 01:07:14;;;;;;;0.40;0.40;;;;;;;16.26;52.15;96873.22;29394;218;64013;-59
2023/06/16 01:08:31;;;;;;;0.50;0.50;;;;;;;16.25;51.90;96865.31;29395;208;63005;-58
2023/06/16 01:09:28;;;;;;;0.50;0.50;;;;;;;16.23;52.26;96867.59;29394;203;64013;-53
2023/06/16 01:10:29;;;;;;;0.40;0.40;;;;;;;16.20;52.29;96868.25;29395;220;63004;-59
2023/06/16 01:11:19;;;;;;;0.50;0.50;;;;;;;16.17;52.15;96868.91;29395;202;63009;-58
2023/06/16 01:12:22;;;;;;;0.50;0.50;;;;;;;16.15;52.36;96865.69;29394;246;64008;-58
2023/06/16 01:13:34;;;;;;;0.50;0.50;;;;;;;16.13;52.41;96863.28;29394;203;64014;-58
2023/06/16 01:14:19;;;;;;;0.50;0.50;;;;;;;16.12;52.14;96858.13;29417;246;63005;-52
2023/06/16 01:15:09;;;;;;;0.50;0.50;;;;;;;16.10;52.34;96863.94;29395;204;63009;-52
2023/06/16 01:15:44;;;;;;;0.50;0.50;;;;;;;16.09;52.42;96865.06;29395;250;63005;-58
2023/06/16 01:16:23;;;;;;;0.50;0.50;;;;;;;16.09;52.49;96868.59;29395;300;63009;-54
2023/06/16 01:16:57;;;;;;;0.50;0.50;;;;;;;16.08;52.49;96861.53;29395;232;63004;-59
2023/06/16 01:17:30;;;;;;;0.50;0.50;;;;;;;16.04;52.61;96860.56;29395;217;63009;-52
2023/06/16 01:18:08;;;;;;;0.50;0.50;;;;;;;16.08;52.43;96860.72;29394;307;64009;-51
2023/06/16 01:18:43;;;;;;;0.40;0.40;;;;;;;16.07;52.45;96857.19;29394;257;64013;-60
2023/06/16 01:19:28;;;;;;;0.40;0.40;;;;;;;16.07;52.75;96864.59;29394;218;64004;-52
2023/06/16 01:20:24;;;;;;;0.40;0.40;;;;;;;16.04;52.52;96863.31;29395;251;63008;-58
2023/06/16 01:21:20;;;;;;;0.50;0.50;;;;;;;16.04;52.76;96859.78;29395;202;63005;-58
2023/06/16 01:22:21;;;;;;;0.50;0.50;;;;;;;16.02;52.96;96862.84;29394;202;64013;-58
2023/06/16 01:23:15;;;;;;;0.40;0.40;;;;;;;16.01;52.73;96871.38;29395;230;63005;-58
2023/06/16 01:24:19;;;;;;;0.50;0.50;;;;;;;15.99;52.74;96858.00;29394;240;64013;-58
2023/06/16 01:24:54;;;;;;;0.40;0.40;;;;;;;15.98;52.84;96861.88;29395;231;63004;-52
2023/06/16 01:25:29;;;;;;;0.50;0.50;;;;;;;15.97;52.77;96862.22;29395;217;63009;-52
2023/06/16 01:26:04;;;;;;;0.40;0.40;;;;;;;15.97;52.70;96867.69;29395;265;63004;-52
2023/06/16 01:26:40;;;;;;;0.50;0.50;;;;;;;15.95;52.80;96862.53;29395;229;63008;-51
2023/06/16 01:27:13;;;;;;;0.50;0.50;;;;;;;15.94;52.96;96865.62;29395;224;63007;-59
2023/06/16 01:27:47;;;;;;;0.50;0.50;;;;;;;15.93;53.05;96866.75;29395;301;63009;-51
2023/06/16 01:28:21;;;;;;;0.50;0.50;;;;;;;15.91;53.08;96861.59;29395;294;63005;-52
2023/06/16 01:28:54;;;;;;;0.50;0.50;;;;;;;15.89;53.52;96866.59;29394;253;64013;-58
2023/06/16 01:29:35;;;;;;;0.40;0.40;;;;;;;15.86;54.23;96869.19;29395;216;63005;-59
2023/06/16 01:30:12;;;;;;;0.50;0.50;;;;;;;15.83;53.74;96869.84;29416;216;64013;-52
2023/06/16 01:30:50;;;;;;;0.50;0.50;;;;;;;15.82;53.85;96869.03;29395;264;63000;-52
2023/06/16 01:31:24;;;;;;;0.40;0.40;;;;;;;15.82;53.81;96863.56;29394;238;64013;-59
2023/06/16 01:31:59;;;;;;;0.40;0.40;;;;;;;15.81;53.64;96861.97;29394;209;64009;-52
2023/06/16 01:32:32;;;;;;;0.50;0.50;;;;;;;15.79;53.99;96863.41;29395;215;63009;-58
2023/06/16 01:33:05;;;;;;;0.50;0.50;;;;;;;15.78;54.63;96870.00;29395;212;63004;-52
2023/06/16 01:33:38;;;;;;;0.60;0.60;;;;;;;15.75;54.24;96874.19;29395;245;63008;-58
2023/06/16 01:34:12;;;;;;;0.47;0.47;;;;;;;15.74;54.47;96867.13;29395;220;63004;-58
2023/06/16 01:34:45;;;;;;;0.40;0.40;;;;;;;15.73;54.43;96866.31;29395;238;63009;-58
2023/06/16 01:35:18;;;;;;;0.50;0.50;;;;;;;15.71;54.32;96865.03;29395;197;63014;-58
2023/06/16 01:35:52;;;;;;;0.40;0.40;;;;;;;15.70;54.21;96871.62;29395;284;63009;-51
2023/06/16 01:36:25;;;;;;;0.40;0.40;;;;;;;15.69;54.14;96867.28;29395;254;63005;-51
2023/06/16 01:36:57;;;;;;;0.40;0.40;;;;;;;15.69;54.64;96870.03;29394;204;64006;-52
2023/06/16 01:37:29;;;;;;;0.50;0.50;;;;;;;15.69;54.61;96875.50;29395;221;63009;-59
2023/06/16 01:38:01;;;;;;;0.50;0.50;;;;;;;15.69;54.78;96870.03;29395;218;63009;-51
2023/06/16 01:38:37;;;;;;;0.40;0.40;;;;;;;15.69;54.62;96870.03;29395;204;63005;-57
2023/06/16 01:39:10;;;;;;;0.50;0.50;;;;;;;15.69;54.77;96870.03;29395;218;63009;-58
2023/06/16 01:39:45;;;;;;;0.50;0.50;;;;;;;15.69;54.58;96864.56;29395;230;63004;-59
2023/06/16 01:40:17;;;;;;;0.50;0.50;;;;;;;15.68;54.21;96862.97;29395;203;63009;-51
2023/06/16 01:40:52;;;;;;;0.40;0.40;;;;;;;15.69;54.02;96864.56;29395;218;63004;-60
2023/06/16 01:41:24;;;;;;;0.50;0.50;;;;;;;15.68;54.28;96865.69;29395;217;63008;-52
2023/06/16 01:41:58;;;;;;;0.50;0.50;;;;;;;15.67;54.18;96862.16;29394;218;64009;-51
2023/06/16 01:42:30;;;;;;;0.47;0.47;;;;;;;15.66;54.88;96876.16;29395;227;63009;-52
2023/06/16 01:43:03;;;;;;;0.50;0.50;;;;;;;15.65;54.42;96866.34;29395;242;63005;-51
2023/06/16 01:43:36;;;;;;;0.40;0.40;;;;;;;15.64;54.42;96867.47;29395;202;63009;-58
2023/06/16 01:44:09;;;;;;;0.40;0.40;;;;;;;15.63;54.92;96865.84;29395;231;63016;-52
2023/06/16 01:44:42;;;;;;;0.40;0.40;;;;;;;15.64;54.52;96870.19;29395;222;63009;-58
2023/06/16 01:45:24;;;;;;;0.40;0.40;;;;;;;15.64;54.33;96856.53;29394;203;64009;-58
2023/06/16 01:45:57;;;;;;;0.40;0.40;;;;;;;15.63;54.45;96866.66;29394;207;64013;-58
2023/06/16 01:46:32;;;;;;;0.50;0.50;;;;;;;15.64;54.45;96872.94;29395;206;63000;-53
2023/06/16 01:47:04;;;;;;;0.40;0.40;;;;;;;15.64;54.19;96868.28;29395;310;63009;-51
2023/06/16 01:47:36;;;;;;;0.40;0.40;;;;;;;15.63;54.31;96868.59;29395;216;63004;-51
2023/06/16 01:48:08;;;;;;;0.50;0.50;;;;;;;15.63;54.19;96857.66;29395;239;63009;-58
2023/06/16 01:48:39;;;;;;;0.50;0.50;;;;;;;15.62;54.21;96864.25;29395;220;63004;-59
2023/06/16 01:49:11;;;;;;;0.50;0.50;;;;;;;15.62;54.16;96856.84;29395;213;63008;-52
2023/06/16 01:49:43;;;;;;;0.40;0.40;;;;;;;15.63;54.09;96860.37;29395;206;63005;-58
2023/06/16 01:50:15;;;;;;;0.50;0.50;;;;;;;15.63;54.17;96860.37;29394;300;64014;-51
2023/06/16 01:50:48;;;;;;;0.50;0.50;;;;;;;15.63;53.94;96854.91;29395;198;63005;-52
2023/06/16 01:51:20;;;;;;;0.40;0.40;;;;;;;15.64;53.82;96853.78;29395;222;63016;-51
2023/06/16 01:51:52;;;;;;;0.50;0.50;;;;;;;15.61;53.85;96852.50;29395;204;63005;-51
2023/06/16 01:52:23;;;;;;;0.50;0.50;;;;;;;15.65;53.84;96858.13;29395;198;63009;-52
2023/06/16 01:52:55;;;;;;;0.40;0.40;;;;;;;15.65;53.90;96864.41;29395;204;63005;-51
2023/06/16 01:53:26;;;;;;;0.40;0.40;;;;;;;15.67;53.79;96855.88;29395;219;63009;-51
2023/06/16 01:53:57;;;;;;;0.40;0.40;;;;;;;15.67;53.54;96855.88;29394;253;64009;-51
2023/06/16 01:54:29;;;;;;;0.40;0.40;;;;;;;15.69;53.60;96859.09;29395;267;63009;-52
2023/06/16 01:55:01;;;;;;;0.40;0.40;;;;;;;15.69;53.69;96853.63;29395;259;63004;-51
2023/06/16 01:55:32;;;;;;;0.40;0.40;;;;;;;15.70;53.78;96857.97;29394;204;64013;-58
2023/06/16 01:56:05;;;;;;;0.40;0.40;;;;;;;15.70;53.68;96850.56;29395;202;63004;-59
2023/06/16 01:56:36;;;;;;;0.40;0.40;;;;;;;15.68;53.95;96857.47;29395;232;63008;-52
2023/06/16 01:57:08;;;;;;;0.40;0.40;;;;;;;15.72;53.79;96861.19;29395;209;63005;-51
2023/06/16 01:57:41;;;;;;;0.40;0.40;;;;;;;15.71;53.91;96860.37;29395;218;63009;-58
2023/06/16 01:58:12;;;;;;;0.40;0.40;;;;;;;15.72;54.48;96861.19;29395;240;63005;-52
2023/06/16 01:58:44;;;;;;;0.40;0.40;;;;;;;15.72;54.76;96863.91;29395;197;63009;-51
2023/06/16 01:59:16;;;;;;;0.40;0.40;;;;;;;15.70;54.54;96860.69;29395;219;63005;-57
2023/06/16 01:59:57;;;;;;;0.75;0.75;;;;;;;15.70;54.76;96860.69;29395;232;63009;-52
2023/06/16 02:00:35;;;;;;;0.45;0.45;;;;;;;15.71;54.42;96863.09;29416;202;64009;-52
2023/06/16 02:01:25;;;;;;;0.40;0.40;;;;;;;15.71;54.12;96860.37;29395;208;63009;-57
2023/06/16 02:02:03;;;;;;;0.50;0.50;;;;;;;15.73;54.08;96854.56;29395;240;63004;-58
2023/06/16 02:02:40;;;;;;;0.50;0.50;;;;;;;15.75;53.76;96855.06;29395;218;63009;-58
2023/06/16 02:03:19;;;;;;;0.50;0.50;;;;;;;15.77;53.75;96858.28;29395;230;63004;-59
2023/06/16 02:04:02;;;;;;;0.47;0.47;;;;;;;15.77;53.70;96850.06;29395;213;63016;-58
2023/06/16 02:04:36;;;;;;;0.40;0.40;;;;;;;15.78;53.37;96851.66;29395;211;63004;-59
2023/06/16 02:05:11;;;;;;;0.50;0.50;;;;;;;15.81;53.59;96856.50;29394;267;64014;-52
2023/06/16 02:05:47;;;;;;;0.50;0.50;;;;;;;15.82;53.60;96858.09;29395;204;63005;-59
2023/06/16 02:06:29;;;;;;;0.40;0.40;;;;;;;15.81;53.38;96861.97;29395;216;63024;-57
2023/06/16 02:07:08;;;;;;;0.40;0.40;;;;;;;15.82;53.41;96852.63;29395;203;63005;-58
2023/06/16 02:07:43;;;;;;;0.40;0.40;;;;;;;15.82;53.27;96852.63;29395;206;63009;-58
2023/06/16 02:08:17;;;;;;;0.50;0.50;;;;;;;15.82;53.43;96849.88;29395;392;63005;-51
2023/06/16 02:08:53;;;;;;;0.50;0.50;;;;;;;15.84;53.18;96860.50;29395;202;63009;-59
2023/06/16 02:09:26;;;;;;;0.50;0.50;;;;;;;15.83;53.25;96856.97;29395;343;63004;-51
2023/06/16 02:09:59;;;;;;;0.40;0.40;;;;;;;15.84;53.38;96860.50;29395;221;63009;-52
2023/06/16 02:10:31;;;;;;;0.50;0.50;;;;;;;15.84;53.21;96861.31;29394;215;64009;-50
2023/06/16 02:11:04;;;;;;;0.50;0.50;;;;;;;15.84;53.39;96857.78;29395;254;63009;-52
2023/06/16 02:11:37;;;;;;;0.40;0.40;;;;;;;15.85;53.57;96857.44;29395;211;63004;-50
2023/06/16 02:12:13;;;;;;;0.40;0.40;;;;;;;15.83;53.51;96859.69;29395;273;63009;-50
2023/06/16 02:12:46;;;;;;;0.50;0.50;;;;;;;15.84;53.46;96860.50;29395;211;63005;-51
2023/06/16 02:13:17;;;;;;;0.40;0.40;;;;;;;15.81;54.12;96864.69;29395;211;63009;-50
2023/06/16 02:13:49;;;;;;;0.40;0.40;;;;;;;15.80;54.28;96860.34;29395;207;63005;-51
2023/06/16 02:14:21;;;;;;;0.40;0.40;;;;;;;15.79;54.22;96858.75;29394;210;64013;-50
2023/06/16 02:14:53;;;;;;;0.50;0.50;;;;;;;15.80;54.35;96865.81;29394;254;64009;-50
2023/06/16 02:15:27;;;;;;;0.40;0.40;;;;;;;15.79;54.39;96864.22;29395;212;63009;-50
2023/06/16 02:15:59;;;;;;;0.40;0.40;;;;;;;15.80;54.58;96860.34;29395;256;63005;-50
2023/06/16 02:16:44;;;;;;;0.47;0.47;;;;;;;15.82;54.46;96851.81;29395;202;63004;-50
2023/06/16 02:17:15;;;;;;;0.50;0.50;;;;;;;15.82;54.32;96857.28;29395;216;63000;-51
2023/06/16 02:17:51;;;;;;;0.40;0.40;;;;;;;15.83;54.27;96859.69;29395;421;63009;-50
2023/06/16 02:18:24;;;;;;;0.50;0.50;;;;;;;15.84;53.97;96861.31;29395;227;63004;-50
2023/06/16 02:18:55;;;;;;;0.47;0.47;;;;;;;15.83;53.88;96848.75;29395;221;63022;-50
2023/06/16 02:19:28;;;;;;;0.40;0.40;;;;;;;15.84;53.64;96855.84;29394;211;64008;-51
2023/06/16 02:19:59;;;;;;;0.50;0.50;;;;;;;15.84;53.53;96858.56;29395;294;63009;-52
2023/06/16 02:20:30;;;;;;;0.40;0.40;;;;;;;15.83;53.80;96856.97;29395;240;63005;-53
2023/06/16 02:21:02;;;;;;;0.50;0.50;;;;;;;15.82;53.74;96858.09;29395;211;63009;-51
2023/06/16 02:21:36;;;;;;;0.50;0.50;;;;;;;15.79;55.95;96866.94;29395;217;63005;-56
2023/06/16 02:22:07;;;;;;;0.40;0.40;;;;;;;15.75;55.36;96869.53;29395;202;63009;-53
2023/06/16 02:22:39;;;;;;;0.50;0.50;;;;;;;15.70;55.76;96866.16;29395;202;63005;-52
2023/06/16 02:23:10;;;;;;;0.40;0.40;;;;;;;15.68;54.89;96857.47;29395;204;63009;-53
2023/06/16 02:23:41;;;;;;;0.40;0.40;;;;;;;15.67;55.09;96864.09;29395;202;63004;-52
2023/06/16 02:24:13;;;;;;;0.45;0.45;;;;;;;15.67;55.02;96866.81;29395;292;63009;-52
2023/06/16 02:24:45;;;;;;;0.40;0.40;;;;;;;15.67;54.82;96862.16;29394;219;64009;-53
2023/06/16 02:25:16;;;;;;;0.40;0.40;;;;;;;15.67;54.75;96861.34;29395;225;63009;-52
2023/06/16 02:25:51;;;;;;;0.50;0.50;;;;;;;15.67;54.56;96862.16;29395;209;63004;-51
2023/06/16 02:26:24;;;;;;;0.50;0.50;;;;;;;15.65;55.11;96863.59;29394;263;64013;-52
2023/06/16 02:26:55;;;;;;;0.40;0.40;;;;;;;15.62;55.74;96867.78;29395;293;63004;-52
2023/06/16 02:27:27;;;;;;;0.40;0.40;;;;;;;15.60;55.30;96871.97;29395;209;63009;-52
2023/06/16 02:27:58;;;;;;;0.50;0.50;;;;;;;15.58;55.27;96868.78;29395;278;63005;-52
2023/06/16 02:28:29;;;;;;;0.40;0.40;;;;;;;15.57;55.15;96867.19;29395;237;63009;-51
2023/06/16 02:29:01;;;;;;;0.50;0.50;;;;;;;15.57;54.98;96868.00;29394;196;64009;-51
2023/06/16 02:29:33;;;;;;;0.40;0.40;;;;;;;15.56;55.03;96869.13;29395;233;63009;-52
2023/06/16 02:30:06;;;;;;;0.50;0.50;;;;;;;15.55;55.05;96874.88;29394;231;64009;-51
2023/06/16 02:30:37;;;;;;;0.40;0.40;;;;;;;15.55;54.80;96874.88;29395;227;63009;-52
2023/06/16 02:31:11;;;;;;;0.40;0.40;;;;;;;15.54;54.94;96867.81;29395;237;63004;-52
2023/06/16 02:31:49;;;;;;;0.50;0.50;;;;;;;15.55;55.07;96877.63;29394;203;64013;-51
2023/06/16 02:32:21;;;;;;;0.40;0.40;;;;;;;15.53;55.17;96877.13;29395;204;63004;-51
2023/06/16 02:32:52;;;;;;;0.40;0.40;;;;;;;15.52;54.83;96870.06;29395;210;63009;-51
2023/06/16 02:33:23;;;;;;;0.50;0.50;;;;;;;15.52;55.10;96875.53;29395;205;63004;-52
2023/06/16 02:33:58;;;;;;;0.40;0.40;;;;;;;15.50;54.94;96883.25;29395;202;63008;-52
2023/06/16 02:34:30;;;;;;;0.50;0.50;;;;;;;15.49;55.18;96876.19;29395;213;63005;-52
2023/06/16 02:35:01;;;;;;;0.40;0.40;;;;;;;15.47;54.97;96873.75;29394;250;64014;-52
2023/06/16 02:35:32;;;;;;;0.50;0.50;;;;;;;15.47;55.21;96879.22;29395;267;63005;-52
2023/06/16 02:36:04;;;;;;;0.40;0.40;;;;;;;15.44;55.15;96879.88;29395;232;63026;-51
2023/06/16 02:36:36;;;;;;;0.50;0.50;;;;;;;15.43;55.05;96879.06;29394;241;64009;-51
2023/06/16 02:37:08;;;;;;;0.50;0.50;;;;;;;15.40;55.63;96879.72;29395;206;63009;-51
2023/06/16 02:37:41;;;;;;;0.50;0.50;;;;;;;15.35;57.46;96888.09;29395;248;63005;-59
2023/06/16 02:38:13;;;;;;;0.50;0.50;;;;;;;15.29;57.47;96891.31;29395;237;63009;-52
2023/06/16 02:38:45;;;;;;;0.50;0.50;;;;;;;15.26;56.69;96890.00;29395;197;63004;-52
2023/06/16 02:39:18;;;;;;;0.50;0.50;;;;;;;15.25;56.78;96888.41;29395;231;63009;-51
2023/06/16 02:39:49;;;;;;;0.50;0.50;;;;;;;15.26;56.79;96887.28;29394;221;64009;-51
2023/06/16 02:40:20;;;;;;;0.40;0.40;;;;;;;15.25;56.87;96891.13;29395;239;63009;-51
2023/06/16 02:40:52;;;;;;;0.47;0.47;;;;;;;15.25;56.84;96882.94;29395;197;63004;-52
2023/06/16 02:41:23;;;;;;;0.50;0.50;;;;;;;15.26;56.77;96890.00;29395;229;63008;-52
2023/06/16 02:41:54;;;;;;;0.40;0.40;;;;;;;15.25;56.75;96885.69;29395;274;63005;-52
2023/06/16 02:42:26;;;;;;;0.47;0.47;;;;;;;15.23;56.47;96887.97;29395;237;63009;-57
2023/06/16 02:42:57;;;;;;;0.50;0.50;;;;;;;15.23;56.80;96882.50;29394;216;64009;-52
2023/06/16 02:43:28;;;;;;;0.40;0.40;;;;;;;15.22;56.66;96883.63;29395;226;63009;-51
2023/06/16 02:44:00;;;;;;;0.40;0.40;;;;;;;15.22;56.56;96882.81;29395;258;63005;-52